Time;durP1;ratioP1;P1;durP2;ratioP2;P2;SDS_P1;SDS_P2;PMS_P1;PMS_P2;Temp;Humidity;BMP_temperature;BMP_pressure;BME280_temperature;BME280_humidity;BME280_pressure;Samples;Min_cycle;Max_cycle;Signal;HPM_P1;HPM_P2
2021/03/19 00:01:59;;;;;;;9.95;8.95;;;;;;;;;;10357853;28;20032;-63
2021/03/19 00:06:57;;;;;;;13.00;11.80;;;;;;;;;;10358121;28;20071;-63
2021/03/19 00:11:55;;;;;;;11.68;10.60;;;;;;;;;;10357351;28;20473;-62
2021/03/19 00:16:52;;;;;;;14.23;12.73;;;;;;;;;;10355232;28;20056;-63
2021/03/19 00:21:49;;;;;;;9.98;8.63;;;;;;;;;;10357166;28;20040;-63
2021/03/19 00:26:47;;;;;;;9.82;8.73;;;;;;;;;;10353192;28;20043;-64
2021/03/19 00:31:45;;;;;;;11.43;9.85;;;;;;;;;;10354085;28;20074;-64
2021/03/19 00:36:43;;;;;;;8.65;7.75;;;;;;;;;;10355817;28;20063;-63
2021/03/19 00:41:40;;;;;;;9.32;8.43;;;;;;;;;;10357573;28;20044;-63
2021/03/19 00:46:37;;;;;;;8.40;7.40;;;;;;;;;;10357411;28;20066;-64
2021/03/19 00:51:36;;;;;;;8.93;7.93;;;;;;;;;;10357214;28;20048;-64
2021/03/19 00:56:33;;;;;;;13.80;10.80;;;;;;;;;;10357899;28;20064;-64
2021/03/19 01:01:31;;;;;;;10.38;9.10;;;;;;;;;;10357889;28;20504;-64
2021/03/19 01:06:29;;;;;;;11.32;9.60;;;;;;;;;;10363073;28;20043;-63
2021/03/19 01:11:28;;;;;;;11.57;9.48;;;;;;;;;;10365653;28;20645;-63
2021/03/19 01:16:26;;;;;;;10.50;9.40;;;;;;;;;;10365292;28;20068;-64
2021/03/19 01:21:24;;;;;;;11.10;10.00;;;;;;;;;;10364948;28;20061;-62
2021/03/19 01:26:21;;;;;;;13.25;11.95;;;;;;;;;;10364820;28;20044;-62
2021/03/19 01:31:20;;;;;;;13.00;10.43;;;;;;;;;;10364968;28;20075;-62
2021/03/19 01:36:17;;;;;;;11.60;10.40;;;;;;;;;;10362039;28;20558;-63
2021/03/19 01:41:14;;;;;;;11.82;9.88;;;;;;;;;;10364421;28;20241;-63
2021/03/19 01:46:33;;;;;;;11.43;9.68;;;;;;;;;;10364049;28;20075;-63
2021/03/19 01:51:49;;;;;;;12.02;10.73;;;;;;;;;;10363496;28;20435;-63
2021/03/19 01:57:04;;;;;;;12.70;10.30;;;;;;;;;;10362335;28;20055;-63
2021/03/19 02:02:20;;;;;;;10.25;9.20;;;;;;;;;;10360459;28;20043;-63
2021/03/19 02:07:37;;;;;;;14.23;11.73;;;;;;;;;;10360016;28;20076;-63
2021/03/19 02:12:53;;;;;;;12.45;10.27;;;;;;;;;;10362291;28;20072;-63
2021/03/19 02:18:08;;;;;;;11.98;10.77;;;;;;;;;;10357790;28;20071;-63
2021/03/19 02:23:24;;;;;;;14.23;10.63;;;;;;;;;;10359343;28;20059;-63
2021/03/19 02:28:40;;;;;;;13.38;11.50;;;;;;;;;;10359175;28;20080;-63
2021/03/19 02:33:41;;;;;;;15.05;12.32;;;;;;;;;;10361312;28;20075;-64
2021/03/19 02:38:39;;;;;;;14.23;11.55;;;;;;;;;;10361898;28;20044;-64
2021/03/19 02:43:36;;;;;;;14.10;11.07;;;;;;;;;;10360491;28;20075;-64
2021/03/19 02:48:34;;;;;;;14.15;11.35;;;;;;;;;;10356277;28;20521;-64
2021/03/19 02:53:32;;;;;;;12.88;11.40;;;;;;;;;;10361113;28;20083;-64
2021/03/19 02:58:30;;;;;;;19.30;13.93;;;;;;;;;;10360957;28;20067;-64
2021/03/19 03:03:27;;;;;;;13.57;10.80;;;;;;;;;;10359288;28;20484;-64
2021/03/19 03:08:25;;;;;;;11.60;10.40;;;;;;;;;;10358319;28;20098;-64
2021/03/19 03:13:25;;;;;;;14.90;12.80;;;;;;;;;;10360422;28;20071;-64
2021/03/19 03:18:22;;;;;;;14.75;11.85;;;;;;;;;;10360211;28;20080;-63
2021/03/19 03:23:25;;;;;;;14.35;12.70;;;;;;;;;;10359159;28;20097;-64
2021/03/19 03:28:25;;;;;;;14.47;12.50;;;;;;;;;;10359750;28;20540;-64
2021/03/19 03:33:24;;;;;;;22.13;19.52;;;;;;;;;;10359697;28;20067;-64
2021/03/19 03:38:23;;;;;;;16.10;13.05;;;;;;;;;;10359363;28;20060;-64
2021/03/19 03:43:21;;;;;;;48.83;32.25;;;;;;;;;;10359471;28;20048;-64
2021/03/19 03:48:20;;;;;;;13.10;11.60;;;;;;;;;;10359398;28;20060;-64
2021/03/19 03:53:18;;;;;;;13.10;11.70;;;;;;;;;;10359560;28;20072;-64
2021/03/19 03:58:16;;;;;;;12.75;11.55;;;;;;;;;;10357587;28;20071;-64
2021/03/19 04:03:14;;;;;;;12.45;9.65;;;;;;;;;;10353939;28;20079;-63
2021/03/19 04:08:14;;;;;;;12.30;10.38;;;;;;;;;;10354704;28;20056;-64
2021/03/19 04:13:11;;;;;;;12.38;10.55;;;;;;;;;;10352872;28;20083;-64
2021/03/19 04:18:11;;;;;;;12.75;11.30;;;;;;;;;;10349023;28;20051;-63
2021/03/19 04:23:08;;;;;;;12.52;10.30;;;;;;;;;;10353354;28;20074;-64
2021/03/19 04:28:07;;;;;;;13.02;10.68;;;;;;;;;;10356738;28;20083;-64
2021/03/19 04:33:05;;;;;;;12.32;10.70;;;;;;;;;;10356474;28;20079;-64
2021/03/19 04:38:04;;;;;;;13.43;10.48;;;;;;;;;;10339594;28;20547;-64
2021/03/19 04:43:02;;;;;;;13.07;11.13;;;;;;;;;;10352385;28;20044;-64
2021/03/19 04:48:00;;;;;;;13.68;11.48;;;;;;;;;;10352656;28;20071;-64
2021/03/19 04:52:58;;;;;;;15.13;12.70;;;;;;;;;;10355434;28;20075;-64
2021/03/19 04:57:55;;;;;;;14.50;12.43;;;;;;;;;;10357178;28;20082;-64
2021/03/19 05:02:53;;;;;;;23.98;20.17;;;;;;;;;;10356401;28;20090;-63
2021/03/19 05:07:51;;;;;;;24.75;18.23;;;;;;;;;;10354289;28;20060;-64
2021/03/19 05:12:49;;;;;;;21.65;16.23;;;;;;;;;;10353615;28;20500;-64
2021/03/19 05:17:46;;;;;;;21.92;19.58;;;;;;;;;;10356077;28;20036;-64
2021/03/19 05:22:43;;;;;;;22.50;17.52;;;;;;;;;;10352456;28;20405;-64
2021/03/19 05:27:43;;;;;;;18.45;14.30;;;;;;;;;;10355726;28;20067;-64
2021/03/19 05:32:40;;;;;;;19.83;15.00;;;;;;;;;;10355970;28;20044;-64
2021/03/19 05:37:39;;;;;;;22.80;13.80;;;;;;;;;;10355632;28;20410;-64
2021/03/19 05:42:37;;;;;;;18.20;13.93;;;;;;;;;;10355946;28;20040;-64
2021/03/19 05:47:36;;;;;;;17.02;12.90;;;;;;;;;;10358253;28;20074;-63
2021/03/19 05:52:36;;;;;;;17.90;15.52;;;;;;;;;;10363816;28;20067;-63
2021/03/19 05:57:34;;;;;;;15.52;13.38;;;;;;;;;;10363073;28;20377;-64
2021/03/19 06:02:32;;;;;;;18.05;14.23;;;;;;;;;;10360841;28;20423;-64
2021/03/19 06:07:46;;;;;;;19.23;14.23;;;;;;;;;;10358052;28;20482;-64
2021/03/19 06:12:43;;;;;;;20.63;13.38;;;;;;;;;;10359321;28;20071;-64
2021/03/19 06:17:44;;;;;;;167.60;32.13;;;;;;;;;;10361156;28;20047;-63
2021/03/19 06:22:46;;;;;;;83.60;20.77;;;;;;;;;;10361962;28;20522;-63
2021/03/19 06:27:49;;;;;;;34.13;15.57;;;;;;;;;;10362123;28;20508;-63
2021/03/19 06:32:59;;;;;;;61.60;35.03;;;;;;;;;;10361718;28;20048;-64
2021/03/19 06:38:17;;;;;;;35.42;22.08;;;;;;;;;;10359069;28;20040;-64
2021/03/19 06:43:18;;;;;;;20.50;15.57;;;;;;;;;;10358847;28;20099;-64
2021/03/19 06:48:32;;;;;;;21.98;17.17;;;;;;;;;;10358872;28;20076;-64
2021/03/19 06:53:30;;;;;;;22.27;17.70;;;;;;;;;;10360984;28;20130;-64
2021/03/19 06:58:32;;;;;;;20.80;15.18;;;;;;;;;;10360219;28;20036;-64
2021/03/19 07:03:40;;;;;;;25.38;17.38;;;;;;;;;;10360671;28;20074;-64
2021/03/19 07:08:43;;;;;;;30.42;20.08;;;;;;;;;;10358599;28;20075;-63
2021/03/19 07:13:50;;;;;;;23.50;18.77;;;;;;;;;;10358372;28;20078;-63
2021/03/19 07:18:57;;;;;;;30.15;19.25;;;;;;;;;;10358794;28;20063;-63
2021/03/19 07:24:03;;;;;;;25.02;18.17;;;;;;;;;;10360130;28;20074;-64
2021/03/19 07:29:16;;;;;;;22.73;16.70;;;;;;;;;;10355943;28;20071;-63
2021/03/19 07:34:34;;;;;;;70.40;40.72;;;;;;;;;;10358781;28;20086;-64
2021/03/19 07:39:52;;;;;;;94.22;41.38;;;;;;;;;;10341017;28;20048;-64
2021/03/19 07:44:54;;;;;;;45.95;20.25;;;;;;;;;;10358381;28;20480;-64
2021/03/19 07:50:04;;;;;;;45.58;19.23;;;;;;;;;;10359318;28;20039;-63
2021/03/19 07:55:03;;;;;;;60.30;22.02;;;;;;;;;;10359136;28;20527;-63
2021/03/19 08:00:06;;;;;;;23.95;16.42;;;;;;;;;;10358914;28;20075;-63
2021/03/19 08:05:09;;;;;;;36.72;18.25;;;;;;;;;;10356438;28;20450;-64
2021/03/19 08:10:18;;;;;;;28.27;17.75;;;;;;;;;;10356099;28;20063;-64
2021/03/19 08:15:22;;;;;;;151.15;35.85;;;;;;;;;;10357020;28;20438;-64
2021/03/19 08:20:46;;;;;;;33.38;17.90;;;;;;;;;;10358737;28;20072;-64
2021/03/19 08:25:46;;;;;;;53.95;21.45;;;;;;;;;;10332362;28;20067;-64
2021/03/19 08:30:48;;;;;;;37.30;18.42;;;;;;;;;;10357721;28;20087;-62
2021/03/19 08:35:50;;;;;;;35.63;16.27;;;;;;;;;;10355095;28;20080;-64
2021/03/19 08:40:50;;;;;;;20.08;14.32;;;;;;;;;;10353535;28;20432;-64
2021/03/19 08:45:53;;;;;;;54.22;24.75;;;;;;;;;;10357254;28;20051;-65
2021/03/19 08:51:12;;;;;;;53.90;22.27;;;;;;;;;;10357057;28;20072;-64
2021/03/19 08:56:29;;;;;;;66.75;24.10;;;;;;;;;;10355474;28;20071;-64
2021/03/19 09:01:48;;;;;;;20.13;13.45;;;;;;;;;;10355091;28;20405;-65
2021/03/19 09:07:04;;;;;;;31.25;16.80;;;;;;;;;;10354210;28;20044;-63
2021/03/19 09:12:09;;;;;;;52.60;24.20;;;;;;;;;;10355358;28;20032;-63
2021/03/19 09:17:21;;;;;;;36.20;13.88;;;;;;;;;;10353594;28;20071;-63
2021/03/19 09:22:30;;;;;;;26.20;15.98;;;;;;;;;;10356178;28;20036;-63
2021/03/19 09:27:31;;;;;;;84.60;32.58;;;;;;;;;;10364278;28;20048;-63
2021/03/19 09:32:39;;;;;;;28.20;14.55;;;;;;;;;;10363998;28;20079;-64
2021/03/19 09:37:48;;;;;;;21.95;13.93;;;;;;;;;;10360871;28;20044;-64
2021/03/19 09:42:53;;;;;;;16.20;14.50;;;;;;;;;;10363669;28;20075;-64
2021/03/19 09:47:53;;;;;;;22.02;16.35;;;;;;;;;;10363531;28;20485;-63
2021/03/19 09:52:55;;;;;;;15.57;12.93;;;;;;;;;;10363580;28;20402;-63
2021/03/19 09:57:53;;;;;;;20.67;16.45;;;;;;;;;;10362149;28;20110;-63
2021/03/19 10:02:50;;;;;;;37.03;26.67;;;;;;;;;;10362565;28;20485;-63
2021/03/19 10:07:50;;;;;;;32.15;16.77;;;;;;;;;;10362707;28;20068;-62
2021/03/19 10:12:47;;;;;;;40.17;20.85;;;;;;;;;;10362257;28;20048;-63
2021/03/19 10:17:48;;;;;;;36.50;17.58;;;;;;;;;;10362590;28;20086;-62
2021/03/19 10:22:52;;;;;;;57.10;19.08;;;;;;;;;;10362065;28;20083;-63
2021/03/19 10:27:51;;;;;;;38.00;17.10;;;;;;;;;;10361832;28;20072;-63
2021/03/19 10:32:49;;;;;;;24.38;15.10;;;;;;;;;;10360228;28;20079;-64
2021/03/19 10:37:53;;;;;;;40.90;18.67;;;;;;;;;;10362243;28;20364;-63
2021/03/19 10:42:52;;;;;;;29.42;19.08;;;;;;;;;;10361391;28;20051;-63
2021/03/19 10:47:51;;;;;;;181.18;34.00;;;;;;;;;;10361269;28;20064;-64
2021/03/19 10:52:52;;;;;;;55.30;18.20;;;;;;;;;;10360873;28;20064;-64
2021/03/19 10:58:13;;;;;;;32.40;16.42;;;;;;;;;;10360663;28;20086;-64
2021/03/19 11:03:24;;;;;;;24.92;16.60;;;;;;;;;;10360071;28;20059;-64
2021/03/19 11:08:22;;;;;;;30.88;18.20;;;;;;;;;;10360540;28;20048;-64
2021/03/19 11:13:24;;;;;;;25.90;13.93;;;;;;;;;;10360571;28;20052;-65
2021/03/19 11:18:23;;;;;;;19.73;14.27;;;;;;;;;;10360212;28;20075;-64
2021/03/19 11:23:25;;;;;;;27.35;17.38;;;;;;;;;;10359747;28;20048;-65
2021/03/19 11:28:26;;;;;;;33.90;23.52;;;;;;;;;;10359580;28;20087;-65
2021/03/19 11:33:24;;;;;;;36.92;20.15;;;;;;;;;;10357022;28;20075;-64
2021/03/19 11:38:31;;;;;;;30.90;18.95;;;;;;;;;;10358643;28;20075;-64
2021/03/19 11:43:30;;;;;;;22.67;13.50;;;;;;;;;;10356738;28;20060;-66
2021/03/19 11:48:29;;;;;;;29.13;17.13;;;;;;;;;;10356390;28;20044;-64
2021/03/19 11:53:28;;;;;;;25.05;14.82;;;;;;;;;;10358780;28;20060;-64
2021/03/19 11:58:28;;;;;;;35.58;22.73;;;;;;;;;;10356979;28;20082;-64
2021/03/19 12:03:31;;;;;;;49.97;33.53;;;;;;;;;;10358303;28;20040;-64
2021/03/19 12:08:29;;;;;;;24.80;17.23;;;;;;;;;;10355980;28;20063;-64
2021/03/19 12:13:27;;;;;;;29.65;20.90;;;;;;;;;;10357521;28;20059;-65
2021/03/19 12:18:26;;;;;;;28.92;17.13;;;;;;;;;;10357942;28;20064;-64
2021/03/19 12:23:24;;;;;;;15.30;12.70;;;;;;;;;;10357887;28;20043;-65
2021/03/19 12:28:23;;;;;;;47.13;26.92;;;;;;;;;;10357475;28;20083;-65
2021/03/19 12:33:21;;;;;;;70.55;35.67;;;;;;;;;;10357288;28;20043;-64
2021/03/19 12:38:19;;;;;;;27.65;15.93;;;;;;;;;;10357183;28;20072;-65
2021/03/19 12:43:18;;;;;;;21.85;14.50;;;;;;;;;;10357141;28;20208;-64
2021/03/19 12:48:15;;;;;;;35.78;27.48;;;;;;;;;;10354556;28;20047;-64
2021/03/19 12:53:14;;;;;;;31.00;18.30;;;;;;;;;;10354641;28;20050;-65
2021/03/19 12:58:12;;;;;;;27.55;15.80;;;;;;;;;;10355681;28;20099;-65
2021/03/19 13:03:10;;;;;;;23.25;16.13;;;;;;;;;;10357175;28;20071;-66
2021/03/19 13:08:08;;;;;;;20.30;13.50;;;;;;;;;;10356322;28;20087;-64
2021/03/19 13:13:06;;;;;;;66.88;19.92;;;;;;;;;;10356319;28;20508;-64
2021/03/19 13:18:04;;;;;;;128.95;24.25;;;;;;;;;;10356849;28;20083;-64
2021/03/19 13:23:03;;;;;;;22.52;11.75;;;;;;;;;;10356413;28;20044;-62
2021/03/19 13:28:01;;;;;;;19.25;13.68;;;;;;;;;;10353772;28;20456;-62
2021/03/19 13:33:19;;;;;;;18.67;12.75;;;;;;;;;;10355632;28;20469;-62
2021/03/19 13:38:17;;;;;;;16.92;12.82;;;;;;;;;;10356381;28;20080;-62
2021/03/19 13:43:16;;;;;;;19.23;13.85;;;;;;;;;;10355782;28;20070;-62
2021/03/19 13:48:13;;;;;;;28.42;17.25;;;;;;;;;;10356149;28;20074;-62
2021/03/19 13:53:10;;;;;;;32.80;20.13;;;;;;;;;;10355641;28;20032;-62
2021/03/19 13:58:09;;;;;;;41.05;24.50;;;;;;;;;;10355530;28;20067;-62
2021/03/19 14:03:20;;;;;;;28.90;17.60;;;;;;;;;;10355339;28;20051;-62
2021/03/19 14:08:21;;;;;;;90.03;59.20;;;;;;;;;;10357944;28;20080;-62
2021/03/19 14:13:22;;;;;;;15.55;12.73;;;;;;;;;;10363494;28;20527;-63
2021/03/19 14:18:21;;;;;;;22.77;16.58;;;;;;;;;;10362516;28;20067;-63
2021/03/19 14:23:21;;;;;;;13.63;9.93;;;;;;;;;;10362232;28;20417;-63
2021/03/19 14:28:19;;;;;;;22.63;16.40;;;;;;;;;;10362082;28;20051;-63
2021/03/19 14:33:18;;;;;;;55.53;32.85;;;;;;;;;;10362024;28;20043;-63
2021/03/19 14:38:16;;;;;;;119.13;71.43;;;;;;;;;;10360456;28;20068;-63
2021/03/19 14:43:15;;;;;;;36.55;24.23;;;;;;;;;;10358977;28;20048;-63
2021/03/19 14:48:20;;;;;;;28.73;17.38;;;;;;;;;;10358810;28;20535;-63
2021/03/19 14:53:18;;;;;;;40.00;21.33;;;;;;;;;;10358946;28;20094;-63
2021/03/19 14:58:16;;;;;;;30.52;20.65;;;;;;;;;;10361126;28;20048;-63
2021/03/19 15:03:14;;;;;;;30.70;20.33;;;;;;;;;;10360114;28;20543;-63
2021/03/19 15:08:13;;;;;;;41.40;24.58;;;;;;;;;;10360567;28;20051;-63
2021/03/19 15:13:11;;;;;;;39.45;27.23;;;;;;;;;;10360623;28;20126;-63
2021/03/19 15:18:14;;;;;;;28.98;21.80;;;;;;;;;;10360046;28;20068;-64
2021/03/19 15:23:13;;;;;;;127.93;63.60;;;;;;;;;;10359585;28;20063;-63
2021/03/19 15:28:10;;;;;;;218.95;104.85;;;;;;;;;;10359039;28;20082;-64
2021/03/19 15:33:08;;;;;;;120.75;65.30;;;;;;;;;;10358384;28;20520;-63
2021/03/19 15:38:05;;;;;;;96.88;53.05;;;;;;;;;;10357449;28;20067;-63
2021/03/19 15:43:04;;;;;;;44.20;28.17;;;;;;;;;;10356784;28;20036;-64
2021/03/19 15:48:02;;;;;;;65.50;35.58;;;;;;;;;;10358874;28;20504;-64
2021/03/19 15:52:59;;;;;;;123.18;60.30;;;;;;;;;;10359244;28;20063;-62
2021/03/19 15:57:56;;;;;;;228.60;104.90;;;;;;;;;;10358613;28;20075;-65
2021/03/19 16:02:55;;;;;;;96.88;48.33;;;;;;;;;;10358365;28;20500;-63
2021/03/19 16:07:53;;;;;;;334.58;137.60;;;;;;;;;;10358430;28;20036;-63
2021/03/19 16:12:50;;;;;;;498.48;224.88;;;;;;;;;;10356604;28;20509;-64
2021/03/19 16:17:47;;;;;;;266.63;114.90;;;;;;;;;;10357532;28;20068;-62
2021/03/19 16:22:46;;;;;;;133.20;71.82;;;;;;;;;;10357928;28;20071;-62
2021/03/19 16:27:45;;;;;;;69.88;41.47;;;;;;;;;;10357027;28;20409;-62
2021/03/19 16:32:42;;;;;;;278.77;131.35;;;;;;;;;;10333440;28;20481;-62
2021/03/19 16:37:41;;;;;;;199.45;113.80;;;;;;;;;;10337802;28;20496;-63
2021/03/19 16:42:39;;;;;;;396.05;186.93;;;;;;;;;;10333429;28;20079;-61
2021/03/19 16:47:37;;;;;;;306.42;144.90;;;;;;;;;;10342080;28;20071;-64
2021/03/19 16:52:35;;;;;;;205.43;104.03;;;;;;;;;;10341470;28;20497;-63
2021/03/19 16:57:34;;;;;;;137.20;68.70;;;;;;;;;;10335087;28;20513;-62
2021/03/19 17:02:32;;;;;;;69.90;40.97;;;;;;;;;;10348099;28;20071;-64
2021/03/19 17:07:30;;;;;;;73.72;45.38;;;;;;;;;;10336843;28;20063;-63
2021/03/19 17:12:27;;;;;;;52.15;36.20;;;;;;;;;;10335071;28;20059;-63
2021/03/19 17:17:25;;;;;;;43.85;29.48;;;;;;;;;;10344211;28;20462;-64
2021/03/19 17:22:23;;;;;;;31.77;23.23;;;;;;;;;;10343803;28;20072;-64
2021/03/19 17:27:20;;;;;;;64.28;41.85;;;;;;;;;;10347610;28;20064;-63
2021/03/19 17:32:17;;;;;;;25.55;18.35;;;;;;;;;;10352322;28;20509;-63
2021/03/19 17:37:15;;;;;;;27.00;18.38;;;;;;;;;;10352967;28;20083;-63
2021/03/19 17:42:13;;;;;;;25.48;19.08;;;;;;;;;;10355450;28;20067;-63
2021/03/19 17:47:10;;;;;;;25.13;20.10;;;;;;;;;;10363669;28;20044;-63
2021/03/19 17:52:08;;;;;;;28.88;21.95;;;;;;;;;;10363548;28;20044;-64
2021/03/19 17:57:05;;;;;;;29.08;19.70;;;;;;;;;;10362911;28;20068;-64
2021/03/19 18:02:04;;;;;;;35.33;25.23;;;;;;;;;;10361075;28;20071;-63
2021/03/19 18:07:01;;;;;;;31.42;22.08;;;;;;;;;;10360927;28;20458;-64
2021/03/19 18:11:58;;;;;;;39.33;27.02;;;;;;;;;;10362218;28;20047;-63
2021/03/19 18:16:56;;;;;;;38.33;24.50;;;;;;;;;;10362136;28;20532;-63
2021/03/19 18:21:55;;;;;;;44.47;29.58;;;;;;;;;;10361726;28;20501;-63
2021/03/19 18:26:52;;;;;;;28.98;20.42;;;;;;;;;;10361763;28;20036;-63
2021/03/19 18:31:50;;;;;;;41.67;27.55;;;;;;;;;;10361903;28;20052;-63
2021/03/19 18:37:07;;;;;;;21.88;16.52;;;;;;;;;;10361384;28;20079;-64
2021/03/19 18:42:04;;;;;;;23.55;16.48;;;;;;;;;;10361263;28;20055;-63
2021/03/19 18:47:02;;;;;;;29.83;21.35;;;;;;;;;;10361007;28;20043;-64
2021/03/19 18:51:59;;;;;;;28.38;20.42;;;;;;;;;;10360830;28;20480;-63
2021/03/19 18:56:57;;;;;;;25.30;17.52;;;;;;;;;;10357925;28;20040;-64
2021/03/19 19:01:55;;;;;;;21.77;16.77;;;;;;;;;;10360195;28;20122;-64
2021/03/19 19:06:52;;;;;;;17.38;13.90;;;;;;;;;;10360492;28;20048;-63
2021/03/19 19:11:50;;;;;;;19.65;15.85;;;;;;;;;;10360418;28;20036;-63
2021/03/19 19:16:48;;;;;;;23.23;15.55;;;;;;;;;;10359790;28;20071;-63
2021/03/19 19:21:46;;;;;;;22.95;15.15;;;;;;;;;;10359922;28;20079;-63
2021/03/19 19:26:43;;;;;;;34.10;24.42;;;;;;;;;;10360468;28;20047;-63
2021/03/19 19:31:42;;;;;;;44.30;33.80;;;;;;;;;;10359766;28;20052;-64
2021/03/19 19:36:40;;;;;;;24.08;16.80;;;;;;;;;;10357334;28;20099;-63
2021/03/19 19:41:37;;;;;;;18.45;16.00;;;;;;;;;;10358778;28;20207;-64
2021/03/19 19:46:34;;;;;;;17.85;15.13;;;;;;;;;;10357133;28;20413;-64
2021/03/19 19:51:32;;;;;;;107.72;62.72;;;;;;;;;;10359513;28;20040;-64
2021/03/19 19:56:31;;;;;;;58.40;37.08;;;;;;;;;;10359169;28;20488;-64
2021/03/19 20:01:29;;;;;;;31.23;23.95;;;;;;;;;;10357631;28;20047;-63
2021/03/19 20:06:27;;;;;;;18.42;14.63;;;;;;;;;;10358632;28;20382;-63
2021/03/19 20:11:25;;;;;;;17.17;13.93;;;;;;;;;;10358931;28;20063;-63
2021/03/19 20:16:25;;;;;;;16.08;12.52;;;;;;;;;;10358777;28;20071;-63
2021/03/19 20:21:24;;;;;;;15.50;13.18;;;;;;;;;;10356338;28;20075;-63
2021/03/19 20:26:21;;;;;;;28.48;20.33;;;;;;;;;;10355957;28;20095;-63
2021/03/19 20:31:23;;;;;;;23.25;16.70;;;;;;;;;;10355016;28;20087;-63
2021/03/19 20:36:28;;;;;;;23.15;16.98;;;;;;;;;;10357709;28;20082;-64
2021/03/19 20:41:26;;;;;;;19.50;14.65;;;;;;;;;;10355725;28;20043;-64
2021/03/19 20:46:23;;;;;;;20.88;15.52;;;;;;;;;;10355911;28;20067;-64
2021/03/19 20:51:24;;;;;;;71.78;29.60;;;;;;;;;;10357512;28;20075;-64
2021/03/19 20:56:23;;;;;;;69.40;35.03;;;;;;;;;;10357209;28;20087;-62
2021/03/19 21:01:21;;;;;;;32.03;16.35;;;;;;;;;;10356118;28;20310;-63
2021/03/19 21:06:22;;;;;;;65.70;40.00;;;;;;;;;;10357114;28;20044;-63
2021/03/19 21:11:20;;;;;;;57.75;35.95;;;;;;;;;;10356978;28;20044;-62
2021/03/19 21:16:18;;;;;;;49.17;32.60;;;;;;;;;;10356884;28;20435;-64
2021/03/19 21:21:16;;;;;;;31.67;24.83;;;;;;;;;;10364451;28;20082;-64
2021/03/19 21:26:13;;;;;;;41.53;30.45;;;;;;;;;;10365744;28;20047;-63
2021/03/19 21:31:11;;;;;;;41.97;27.38;;;;;;;;;;10364298;28;20080;-62
2021/03/19 21:36:09;;;;;;;43.60;31.05;;;;;;;;;;10362251;28;20079;-64
2021/03/19 21:41:07;;;;;;;359.30;231.02;;;;;;;;;;10364568;28;20071;-63
2021/03/19 21:46:04;;;;;;;108.38;71.25;;;;;;;;;;10364349;28;20068;-64
2021/03/19 21:51:03;;;;;;;54.58;37.20;;;;;;;;;;10364403;28;20564;-63
2021/03/19 21:56:01;;;;;;;46.30;34.10;;;;;;;;;;10363146;28;20473;-63
2021/03/19 22:00:58;;;;;;;72.20;49.95;;;;;;;;;;10348613;28;20114;-63
2021/03/19 22:05:56;;;;;;;39.30;26.15;;;;;;;;;;10344707;28;20078;-64
2021/03/19 22:10:54;;;;;;;24.33;18.08;;;;;;;;;;10344964;28;20040;-63
2021/03/19 22:15:51;;;;;;;40.20;23.63;;;;;;;;;;10354880;28;20075;-63
2021/03/19 22:20:50;;;;;;;35.42;26.30;;;;;;;;;;10349821;28;20072;-63
2021/03/19 22:25:47;;;;;;;37.50;27.60;;;;;;;;;;10355390;28;20067;-63
2021/03/19 22:30:45;;;;;;;25.25;18.33;;;;;;;;;;10355803;28;20083;-63
2021/03/19 22:35:43;;;;;;;24.33;19.38;;;;;;;;;;10353996;28;20421;-64
2021/03/19 22:40:42;;;;;;;21.13;16.95;;;;;;;;;;10355194;28;20060;-64
2021/03/19 22:45:40;;;;;;;20.55;16.08;;;;;;;;;;10358457;28;20068;-64
2021/03/19 22:50:39;;;;;;;21.95;16.92;;;;;;;;;;10358147;28;20040;-64
2021/03/19 22:55:37;;;;;;;25.52;16.67;;;;;;;;;;10360094;28;20048;-65
2021/03/19 23:00:36;;;;;;;21.50;16.23;;;;;;;;;;10359452;28;20478;-63
2021/03/19 23:05:33;;;;;;;19.80;15.52;;;;;;;;;;10356967;28;20043;-64
2021/03/19 23:10:35;;;;;;;22.60;16.02;;;;;;;;;;10361154;28;20040;-62
2021/03/19 23:15:37;;;;;;;19.20;15.18;;;;;;;;;;10358842;28;20048;-63
2021/03/19 23:20:34;;;;;;;19.83;15.57;;;;;;;;;;10358110;28;20039;-63
2021/03/19 23:25:33;;;;;;;19.15;14.15;;;;;;;;;;10360655;28;20067;-64
2021/03/19 23:30:32;;;;;;;17.38;14.45;;;;;;;;;;10359727;28;20417;-63
2021/03/19 23:35:29;;;;;;;20.35;15.50;;;;;;;;;;10360216;28;20047;-63
2021/03/19 23:40:34;;;;;;;21.88;15.82;;;;;;;;;;10353347;28;20063;-63
2021/03/19 23:45:31;;;;;;;19.48;15.18;;;;;;;;;;10359940;28;20048;-63
2021/03/19 23:50:30;;;;;;;25.98;16.80;;;;;;;;;;10359595;28;20072;-62
2021/03/19 23:55:27;;;;;;;23.77;17.63;;;;;;;;;;10359691;28;20047;-63
